Airport View

Enter AWOS ICAO identifier for current METAR.

ex. KFNL

K82C 200005Z AUTO 00000KT 10SM OVC100 01/M03 A3024 RMK AO2 T00081032

20 Oct 2020 00:06

Frequency: 123.925

Phone: 608-562-6153

Other Area AWOS: KVOK - KC35 - KDLL - KCMY

TAF KVOK 191700Z 1917/2023 VRB06KT 9999 SCT050 BKN100 QNH3025INS BECMG 1920/1921 VRB06KT 9999 BKN020 BKN050 QNH3023INS BECMG 2019/2020 11009KT 8000 -SN OVC015 620157 QNH3017INS TX02/2017Z TNM01/2009Z LAST NO AMDS AFT 1921 NEXT 2009